Time;durP1;ratioP1;P1;durP2;ratioP2;P2;SDS_P1;SDS_P2;PMS_P1;PMS_P2;Temp;Humidity;BMP_temperature;BMP_pressure;BME280_temperature;BME280_humidity;BME280_pressure;Samples;Min_cycle;Max_cycle;Signal;HPM_P1;HPM_P2
2021/03/27 00:01:14;;;;;;;2.05;1.85;;;9.70;99.90;;;;;;5070420;28;20224;-81
2021/03/27 00:03:51;;;;;;;1.73;1.63;;;9.40;99.90;;;;;;5069857;28;20196;-82
2021/03/27 00:06:24;;;;;;;2.80;2.00;;;9.20;99.90;;;;;;5069930;28;20196;-81
2021/03/27 00:08:55;;;;;;;0.50;0.40;;;9.00;99.90;;;;;;5069496;28;20210;-81
2021/03/27 00:11:40;;;;;;;1.27;1.17;;;8.80;99.90;;;;;;5069716;28;20228;-81
2021/03/27 00:14:11;;;;;;;1.90;1.05;;;8.70;99.90;;;;;;5069626;28;20195;-81
2021/03/27 00:16:43;;;;;;;0.60;0.60;;;8.60;99.90;;;;;;5068029;28;20211;-81
2021/03/27 00:19:13;;;;;;;0.50;0.50;;;8.50;99.90;;;;;;5069641;28;20195;-81
2021/03/27 00:21:42;;;;;;;2.40;2.20;;;8.40;99.90;;;;;;5069260;28;20192;-80
2021/03/27 00:24:15;;;;;;;1.05;1.05;;;8.40;99.90;;;;;;5069607;28;20192;-82
2021/03/27 00:26:45;;;;;;;0.63;0.63;;;8.30;99.90;;;;;;5068741;28;20218;-81
2021/03/27 00:29:19;;;;;;;1.35;0.98;;;8.30;99.90;;;;;;5068866;28;20188;-81
2021/03/27 00:31:50;;;;;;;1.85;0.98;;;8.10;99.90;;;;;;5058425;23;20303;-79
2021/03/27 00:34:21;;;;;;;1.88;1.25;;;8.00;99.90;;;;;;5046812;28;20538;-80
2021/03/27 00:36:51;;;;;;;2.50;0.60;;;7.90;99.90;;;;;;5063722;28;20758;-78
2021/03/27 00:39:23;;;;;;;0.50;0.40;;;7.80;99.90;;;;;;5062083;28;20195;-79
2021/03/27 00:41:53;;;;;;;3.05;2.15;;;7.70;99.90;;;;;;5043486;28;20215;-79
2021/03/27 00:44:23;;;;;;;1.50;1.15;;;7.70;99.90;;;;;;5043552;28;20254;-78
2021/03/27 00:46:50;;;;;;;1.23;1.15;;;7.60;99.90;;;;;;5042093;28;20205;-80
2021/03/27 00:49:20;;;;;;;1.58;1.25;;;7.30;99.90;;;;;;5043966;28;20670;-79
2021/03/27 00:51:50;;;;;;;0.50;0.40;;;7.30;99.90;;;;;;5044996;28;20223;-80
2021/03/27 00:54:24;;;;;;;0.90;0.90;;;7.20;99.90;;;;;;5042909;28;20730;-80
2021/03/27 00:57:00;;;;;;;1.42;1.23;;;7.10;99.90;;;;;;5043171;28;20183;-79
2021/03/27 00:59:27;;;;;;;0.70;0.50;;;6.90;99.90;;;;;;5037008;28;20187;-80
2021/03/27 01:01:56;;;;;;;1.55;0.75;;;6.70;99.90;;;;;;5016753;28;20221;-80
2021/03/27 01:04:25;;;;;;;9.65;2.33;;;6.50;99.90;;;;;;5031198;28;20573;-79
2021/03/27 01:06:54;;;;;;;2.00;1.80;;;6.50;99.90;;;;;;5035731;28;20222;-79
2021/03/27 01:09:27;;;;;;;1.60;0.80;;;6.40;99.90;;;;;;5044051;28;20217;-79
2021/03/27 01:12:00;;;;;;;5.38;2.92;;;6.30;99.90;;;;;;5043399;28;20314;-79
2021/03/27 01:14:30;;;;;;;1.25;1.15;;;6.20;99.90;;;;;;5044108;28;20226;-79
2021/03/27 01:16:59;;;;;;;2.65;1.20;;;6.10;99.90;;;;;;5043052;28;20203;-80
2021/03/27 01:19:30;;;;;;;0.50;0.40;;;6.10;99.90;;;;;;5044195;28;20191;-79
2021/03/27 01:21:58;;;;;;;1.85;1.70;;;6.10;99.90;;;;;;5045598;28;20486;-79
2021/03/27 01:24:28;;;;;;;1.40;1.05;;;6.10;99.90;;;;;;5046222;28;20191;-80
2021/03/27 01:27:07;;;;;;;1.65;0.98;;;6.20;99.90;;;;;;5045285;28;20636;-79
2021/03/27 01:29:37;;;;;;;0.50;0.50;;;6.20;99.90;;;;;;5046611;28;20183;-79
2021/03/27 01:32:14;;;;;;;1.15;0.90;;;6.20;99.90;;;;;;5032028;28;20226;-79
2021/03/27 01:34:43;;;;;;;2.30;1.35;;;6.20;99.90;;;;;;5027217;28;20231;-79
2021/03/27 01:37:15;;;;;;;1.20;1.10;;;6.20;99.90;;;;;;5024737;28;20210;-80
2021/03/27 01:39:50;;;;;;;1.33;1.20;;;6.10;99.90;;;;;;5024903;28;20184;-81
2021/03/27 01:42:22;;;;;;;1.60;1.25;;;6.00;99.90;;;;;;5028114;28;20216;-80
2021/03/27 01:45:24;;;;;;;1.67;1.58;;;6.00;99.90;;;;;;5027933;28;20183;-81
2021/03/27 01:47:56;;;;;;;0.50;0.47;;;5.90;99.90;;;;;;5023146;28;20199;-81
2021/03/27 01:50:36;;;;;;;1.27;1.17;;;5.90;99.90;;;;;;5026904;28;20254;-80
2021/03/27 01:53:14;;;;;;;4.45;2.45;;;5.90;99.90;;;;;;5026833;28;20215;-79
2021/03/27 01:55:53;;;;;;;0.90;0.77;;;5.90;99.90;;;;;;5026912;28;20198;-80
2021/03/27 01:58:24;;;;;;;0.50;0.50;;;5.90;99.90;;;;;;5026990;28;20545;-77
2021/03/27 02:00:53;;;;;;;2.38;1.95;;;5.90;99.90;;;;;;5027383;28;20300;-80
2021/03/27 02:03:26;;;;;;;1.05;1.05;;;5.90;99.90;;;;;;5027013;28;20251;-80
2021/03/27 02:06:00;;;;;;;1.45;1.27;;;5.90;99.90;;;;;;5016169;28;20190;-78
2021/03/27 02:08:38;;;;;;;1.65;1.23;;;5.90;99.90;;;;;;5017961;28;20189;-80
2021/03/27 02:11:12;;;;;;;3.08;1.50;;;5.90;99.90;;;;;;5017597;28;20270;-79
2021/03/27 02:13:49;;;;;;;0.50;0.50;;;5.80;99.90;;;;;;5017971;28;20214;-79
2021/03/27 02:16:22;;;;;;;0.60;0.60;;;5.80;99.90;;;;;;5017015;28;20180;-79
2021/03/27 02:19:03;;;;;;;2.90;2.70;;;5.80;99.90;;;;;;5018256;28;20196;-79
2021/03/27 02:21:41;;;;;;;1.83;1.02;;;5.80;99.90;;;;;;5018166;28;20223;-79
2021/03/27 02:24:33;;;;;;;0.88;0.60;;;5.90;99.90;;;;;;5018536;28;20229;-79
2021/03/27 02:27:07;;;;;;;2.05;1.70;;;5.90;99.90;;;;;;5015667;28;20206;-78
2021/03/27 02:30:09;;;;;;;0.50;0.40;;;5.80;99.90;;;;;;5018254;28;20699;-80
2021/03/27 02:33:11;;;;;;;0.77;0.77;;;5.80;99.90;;;;;;5025697;28;20219;-80
2021/03/27 02:35:48;;;;;;;1.65;1.35;;;5.70;99.90;;;;;;5005224;28;20287;-80
2021/03/27 02:38:38;;;;;;;1.15;0.90;;;5.80;99.90;;;;;;5006379;28;20275;-80
2021/03/27 02:41:28;;;;;;;1.30;1.20;;;5.80;99.90;;;;;;5004524;28;20270;-79
2021/03/27 02:43:59;;;;;;;3.00;1.45;;;5.80;99.90;;;;;;5006627;28;20265;-80
2021/03/27 02:46:33;;;;;;;1.25;1.05;;;5.80;99.90;;;;;;5005182;28;20201;-80
2021/03/27 02:49:18;;;;;;;2.40;1.23;;;5.80;99.90;;;;;;5005766;28;20207;-79
2021/03/27 02:51:52;;;;;;;1.95;1.13;;;5.70;99.90;;;;;;5004432;28;20338;-80
2021/03/27 02:54:23;;;;;;;0.75;0.75;;;5.70;99.90;;;;;;5004373;28;20204;-78
2021/03/27 02:56:54;;;;;;;5.63;1.67;;;5.80;99.90;;;;;;5003714;28;20187;-78
2021/03/27 02:59:40;;;;;;;3.30;2.03;;;5.80;99.90;;;;;;5007701;28;20181;-79
2021/03/27 03:02:18;;;;;;;4.45;1.17;;;5.80;99.90;;;;;;5020432;28;20651;-80
2021/03/27 03:04:50;;;;;;;2.90;1.85;;;5.80;99.90;;;;;;5026778;28;20206;-79
2021/03/27 03:07:25;;;;;;;4.97;2.75;;;5.90;99.90;;;;;;5026092;28;20180;-79
2021/03/27 03:09:57;;;;;;;1.52;1.33;;;5.90;99.90;;;;;;5026941;28;20306;-79
2021/03/27 03:12:32;;;;;;;3.22;2.42;;;5.90;99.90;;;;;;5027004;28;20245;-80
2021/03/27 03:15:12;;;;;;;3.28;2.35;;;6.00;99.90;;;;;;5027228;28;20208;-79
2021/03/27 03:17:42;;;;;;;0.82;0.82;;;6.00;99.90;;;;;;5025496;28;20207;-79
2021/03/27 03:20:17;;;;;;;0.68;0.68;;;6.00;99.90;;;;;;5028646;28;20196;-79
2021/03/27 03:22:55;;;;;;;0.85;0.80;;;6.00;99.90;;;;;;5028673;28;20208;-79
2021/03/27 03:25:26;;;;;;;0.68;0.68;;;6.00;99.90;;;;;;5028554;28;20191;-79
2021/03/27 03:28:05;;;;;;;1.42;1.33;;;6.00;99.90;;;;;;5026257;28;20191;-78
2021/03/27 03:30:36;;;;;;;1.67;1.55;;;6.00;99.90;;;;;;5026111;28;20215;-79
2021/03/27 03:33:29;;;;;;;0.60;0.50;;;6.00;99.90;;;;;;5025753;28;20204;-79
2021/03/27 03:35:59;;;;;;;3.50;1.48;;;6.00;99.90;;;;;;5007164;28;20227;-79
2021/03/27 03:38:51;;;;;;;0.77;0.70;;;6.00;99.90;;;;;;5026916;28;20224;-79
2021/03/27 03:41:48;;;;;;;1.55;1.33;;;6.00;99.90;;;;;;5023836;28;20224;-79
2021/03/27 03:44:22;;;;;;;1.20;1.13;;;6.00;99.90;;;;;;5032521;28;20206;-78
2021/03/27 03:46:56;;;;;;;1.95;1.60;;;5.90;99.90;;;;;;5029383;28;20725;-80
2021/03/27 03:49:44;;;;;;;2.70;1.20;;;5.90;99.90;;;;;;5031114;28;20208;-77
2021/03/27 03:52:28;;;;;;;5.03;2.08;;;5.80;99.90;;;;;;5032963;28;20220;-78
2021/03/27 03:55:18;;;;;;;2.97;1.63;;;5.80;99.90;;;;;;5032232;28;20199;-80
2021/03/27 03:58:00;;;;;;;0.95;0.85;;;5.70;99.90;;;;;;5033328;28;20164;-79
2021/03/27 04:00:32;;;;;;;1.80;1.58;;;5.70;99.90;;;;;;5030791;28;20199;-78
2021/03/27 04:03:09;;;;;;;4.03;2.13;;;5.70;99.90;;;;;;5032885;28;20191;-79
2021/03/27 04:05:41;;;;;;;0.73;0.60;;;5.70;99.90;;;;;;5011846;28;20200;-79
2021/03/27 04:08:13;;;;;;;3.58;1.50;;;5.70;99.90;;;;;;5011367;28;20211;-79
2021/03/27 04:10:41;;;;;;;5.50;2.33;;;5.70;99.90;;;;;;5013158;28;20724;-80
2021/03/27 04:13:13;;;;;;;3.53;1.48;;;5.80;99.90;;;;;;5011772;28;20225;-79
2021/03/27 04:15:48;;;;;;;1.15;1.15;;;5.80;99.90;;;;;;5011615;28;20189;-79
2021/03/27 04:18:33;;;;;;;1.10;0.95;;;5.90;99.90;;;;;;5006347;28;20192;-80
2021/03/27 04:21:04;;;;;;;0.90;0.70;;;5.90;99.90;;;;;;5011293;28;20230;-78
2021/03/27 04:23:43;;;;;;;2.63;2.05;;;5.90;99.90;;;;;;5013199;28;20243;-78
2021/03/27 04:26:32;;;;;;;5.38;2.70;;;5.80;99.90;;;;;;5010264;28;20274;-79
2021/03/27 04:29:18;;;;;;;1.02;0.85;;;5.80;99.90;;;;;;5009054;28;20189;-79
2021/03/27 04:31:50;;;;;;;32.30;2.13;;;5.80;99.90;;;;;;5020298;28;20287;-79
2021/03/27 04:34:27;;;;;;;2.75;2.38;;;5.80;99.90;;;;;;5030955;28;20210;-77
2021/03/27 04:37:03;;;;;;;0.50;0.40;;;5.70;99.90;;;;;;5028373;28;20239;-79
2021/03/27 04:39:35;;;;;;;1.02;0.93;;;5.70;99.90;;;;;;5027523;28;20225;-78
2021/03/27 04:42:07;;;;;;;1.13;1.02;;;5.70;99.90;;;;;;5023276;28;20334;-80
2021/03/27 04:44:40;;;;;;;1.35;0.75;;;5.70;99.90;;;;;;5023075;28;20203;-78
2021/03/27 04:47:15;;;;;;;0.50;0.50;;;5.70;99.90;;;;;;5023527;28;20192;-80
2021/03/27 04:49:50;;;;;;;3.38;2.70;;;5.70;99.90;;;;;;5027600;28;20287;-80
2021/03/27 04:52:23;;;;;;;1.23;0.98;;;5.70;99.90;;;;;;5026925;28;20227;-80
2021/03/27 04:54:57;;;;;;;2.10;1.92;;;5.70;99.90;;;;;;5029155;28;20613;-80
2021/03/27 04:57:34;;;;;;;1.13;1.05;;;5.80;99.90;;;;;;5025591;28;20209;-79
2021/03/27 05:00:15;;;;;;;2.97;2.83;;;5.70;99.90;;;;;;5026774;28;20187;-81
2021/03/27 05:02:48;;;;;;;2.20;0.65;;;5.80;99.90;;;;;;5025892;28;20192;-80
2021/03/27 05:05:18;;;;;;;0.90;0.75;;;5.80;99.90;;;;;;5025747;28;20185;-80
2021/03/27 05:07:56;;;;;;;2.28;2.10;;;5.80;99.90;;;;;;5024907;28;20670;-79
2021/03/27 05:10:33;;;;;;;0.80;0.80;;;5.80;99.90;;;;;;5019989;28;20548;-79
2021/03/27 05:13:08;;;;;;;0.60;0.47;;;5.90;99.90;;;;;;5018027;28;20700;-78
2021/03/27 05:15:45;;;;;;;5.65;2.92;;;5.90;99.90;;;;;;5017762;28;20180;-79
2021/03/27 05:18:43;;;;;;;2.60;1.40;;;5.90;99.90;;;;;;5016603;28;20229;-79
2021/03/27 05:21:21;;;;;;;6.55;1.25;;;5.90;99.90;;;;;;5000903;28;20254;-79
2021/03/27 05:24:03;;;;;;;1.00;0.63;;;5.90;99.90;;;;;;5016848;28;20184;-78
2021/03/27 05:26:43;;;;;;;1.02;0.75;;;5.90;99.90;;;;;;5016800;28;20199;-78
2021/03/27 05:29:38;;;;;;;0.50;0.40;;;5.90;99.90;;;;;;5017228;28;20184;-78
2021/03/27 05:32:24;;;;;;;1.92;1.30;;;5.90;99.90;;;;;;5016863;28;20228;-77
2021/03/27 05:34:52;;;;;;;1.20;1.10;;;5.90;99.90;;;;;;5017565;28;20285;-79
2021/03/27 05:37:32;;;;;;;1.33;1.25;;;5.90;99.90;;;;;;5016929;28;20207;-79
2021/03/27 05:40:22;;;;;;;1.17;1.13;;;5.80;99.90;;;;;;5015330;28;20196;-79
2021/03/27 05:43:21;;;;;;;3.05;1.95;;;5.80;99.90;;;;;;5021571;28;20203;-79
2021/03/27 05:46:36;;;;;;;6.18;1.25;;;5.80;99.90;;;;;;5021551;28;21108;-77
2021/03/27 05:49:34;;;;;;;0.57;0.57;;;5.80;99.90;;;;;;5021609;28;20200;-79
2021/03/27 05:52:23;;;;;;;1.35;1.13;;;5.80;99.90;;;;;;5021696;28;20224;-78
2021/03/27 05:55:24;;;;;;;1.02;0.63;;;5.90;99.90;;;;;;5022042;28;20177;-79
2021/03/27 05:58:26;;;;;;;0.75;0.75;;;5.90;99.90;;;;;;5019712;28;20588;-78
2021/03/27 06:00:59;;;;;;;1.60;1.35;;;6.00;99.90;;;;;;5003291;28;20246;-79
2021/03/27 06:04:10;;;;;;;1.50;0.70;;;6.00;99.90;;;;;;5015004;28;20191;-78
2021/03/27 06:06:54;;;;;;;8.98;0.82;;;6.00;99.90;;;;;;5018489;28;20192;-78
2021/03/27 06:09:58;;;;;;;0.80;0.68;;;6.00;99.90;;;;;;5021127;28;20176;-79
2021/03/27 06:12:40;;;;;;;1.50;1.40;;;6.00;99.90;;;;;;5020901;28;20220;-78
2021/03/27 06:15:45;;;;;;;0.70;0.70;;;6.00;99.90;;;;;;5018814;28;20190;-78
2021/03/27 06:18:33;;;;;;;1.88;1.02;;;6.00;99.90;;;;;;5018910;28;20243;-78
2021/03/27 06:21:12;;;;;;;0.75;0.75;;;6.00;99.90;;;;;;5020307;28;20272;-79
2021/03/27 06:24:09;;;;;;;0.80;0.80;;;6.00;99.90;;;;;;5021217;28;20184;-78
2021/03/27 06:27:07;;;;;;;2.00;1.55;;;6.10;99.90;;;;;;4975679;28;20203;-78
2021/03/27 06:30:30;;;;;;;1.83;1.73;;;6.20;99.90;;;;;;5013814;28;20176;-77
2021/03/27 06:33:20;;;;;;;1.25;1.25;;;6.20;99.90;;;;;;5069459;23;20240;-80
2021/03/27 06:35:57;;;;;;;4.20;1.02;;;6.40;99.90;;;;;;5075477;28;20214;-77
2021/03/27 06:39:00;;;;;;;0.95;0.70;;;6.50;99.90;;;;;;5073883;28;20192;-80
2021/03/27 06:41:47;;;;;;;0.90;0.90;;;6.60;99.90;;;;;;5071811;28;20226;-80
2021/03/27 06:44:42;;;;;;;0.63;0.63;;;6.60;99.90;;;;;;5074430;28;20672;-80
2021/03/27 06:47:45;;;;;;;18.17;2.35;;;6.60;99.90;;;;;;5071625;28;20194;-77
2021/03/27 06:50:43;;;;;;;1.25;1.02;;;6.70;99.90;;;;;;5020048;28;20194;-78
2021/03/27 06:53:25;;;;;;;0.73;0.73;;;6.70;99.90;;;;;;5070005;28;20218;-81
2021/03/27 06:56:29;;;;;;;0.77;0.77;;;6.70;99.90;;;;;;5072935;28;20247;-78
2021/03/27 06:59:20;;;;;;;6.68;1.40;;;6.70;99.90;;;;;;5071999;28;20194;-79
2021/03/27 07:02:11;;;;;;;2.67;1.88;;;6.60;99.90;;;;;;5073070;28;20305;-80
2021/03/27 07:05:23;;;;;;;3.15;1.55;;;6.40;99.90;;;;;;5073356;28;20571;-80
2021/03/27 07:08:11;;;;;;;2.63;1.35;;;6.20;99.90;;;;;;5068081;28;20246;-80
2021/03/27 07:11:13;;;;;;;0.80;0.80;;;6.10;99.90;;;;;;5069395;28;20198;-78
2021/03/27 07:14:16;;;;;;;2.10;1.95;;;6.10;99.90;;;;;;5069876;28;20218;-80
2021/03/27 07:17:07;;;;;;;4.03;1.08;;;6.00;99.90;;;;;;5067867;28;20321;-79
2021/03/27 07:19:59;;;;;;;1.02;1.02;;;5.80;99.90;;;;;;5069028;28;20544;-79
2021/03/27 07:22:48;;;;;;;2.08;1.73;;;5.80;99.90;;;;;;5069383;28;20250;-79
2021/03/27 07:25:56;;;;;;;0.50;0.40;;;5.40;99.90;;;;;;5068684;28;20199;-80
2021/03/27 07:28:49;;;;;;;0.50;0.50;;;4.60;99.90;;;;;;5055309;28;20221;-80
2021/03/27 07:31:23;;;;;;;0.50;0.40;;;4.00;99.90;;;;;;5064135;28;20213;-79
2021/03/27 07:33:57;;;;;;;6.15;1.45;;;3.80;99.90;;;;;;5078526;28;20190;-80
2021/03/27 07:36:59;;;;;;;1.08;0.98;;;3.70;99.90;;;;;;5087431;28;20180;-80
2021/03/27 07:39:50;;;;;;;1.60;1.50;;;3.70;99.90;;;;;;5089087;28;20185;-78
2021/03/27 07:42:39;;;;;;;1.40;1.30;;;3.70;99.90;;;;;;5088652;28;20263;-80
2021/03/27 07:45:29;;;;;;;0.52;0.47;;;3.80;99.90;;;;;;5072139;28;20201;-78
2021/03/27 07:48:09;;;;;;;1.80;0.93;;;3.90;99.90;;;;;;5088418;28;20200;-80
2021/03/27 07:50:53;;;;;;;0.70;0.60;;;3.90;99.90;;;;;;5089312;28;20200;-80
2021/03/27 07:53:43;;;;;;;0.50;0.50;;;3.90;99.90;;;;;;5088430;28;20220;-80
2021/03/27 07:56:45;;;;;;;0.70;0.70;;;4.00;99.90;;;;;;5070810;28;20197;-80
2021/03/27 07:59:38;;;;;;;0.50;0.50;;;4.10;99.90;;;;;;5088830;28;20197;-77
2021/03/27 08:02:27;;;;;;;2.17;0.85;;;4.20;99.90;;;;;;5028044;28;20224;-79
2021/03/27 08:05:40;;;;;;;0.50;0.40;;;4.30;99.90;;;;;;5081531;28;20261;-80
2021/03/27 08:08:54;;;;;;;0.50;0.40;;;4.30;99.90;;;;;;5088605;28;20186;-80
2021/03/27 08:11:26;;;;;;;9.82;0.85;;;4.30;99.90;;;;;;4987949;28;20239;-79
2021/03/27 08:14:31;;;;;;;0.50;0.40;;;4.30;99.90;;;;;;5082293;28;20260;-80
2021/03/27 08:17:41;;;;;;;0.90;0.70;;;4.30;99.90;;;;;;5087320;28;20245;-79
2021/03/27 08:20:20;;;;;;;0.50;0.50;;;4.30;99.90;;;;;;5014879;28;20209;-80
2021/03/27 08:23:14;;;;;;;0.93;0.93;;;4.30;99.90;;;;;;5089808;28;20225;-79
2021/03/27 08:25:46;;;;;;;8.82;2.70;;;4.30;99.90;;;;;;5092777;28;20181;-80
2021/03/27 08:28:51;;;;;;;0.50;0.47;;;4.40;99.90;;;;;;5089983;28;20189;-79
2021/03/27 08:31:31;;;;;;;0.50;0.43;;;4.60;99.90;;;;;;5089484;28;20201;-79
2021/03/27 08:34:46;;;;;;;0.73;0.70;;;4.90;99.90;;;;;;5082641;28;20260;-79
2021/03/27 08:37:51;;;;;;;0.50;0.40;;;5.20;99.90;;;;;;5018342;28;20371;-79
2021/03/27 08:40:43;;;;;;;0.60;0.60;;;5.60;99.90;;;;;;5067530;28;20256;-79
2021/03/27 08:43:32;;;;;;;0.82;0.60;;;6.00;99.90;;;;;;5055076;28;20233;-80
2021/03/27 08:46:23;;;;;;;0.52;0.52;;;6.20;99.90;;;;;;5062777;28;20183;-79
2021/03/27 08:49:24;;;;;;;0.60;0.60;;;6.10;99.90;;;;;;5063921;28;20190;-79
2021/03/27 08:52:03;;;;;;;0.68;0.68;;;6.10;99.90;;;;;;5064034;28;20217;-79
2021/03/27 08:54:52;;;;;;;1.10;0.82;;;6.20;99.90;;;;;;5063990;28;20202;-78
2021/03/27 08:57:47;;;;;;;0.93;0.88;;;6.40;99.90;;;;;;5070281;28;20194;-80
2021/03/27 09:00:33;;;;;;;0.82;0.82;;;6.50;99.90;;;;;;5070631;28;20202;-77
2021/03/27 09:03:42;;;;;;;1.77;0.70;;;6.90;99.90;;;;;;5082530;28;20218;-79
2021/03/27 09:06:29;;;;;;;1.65;1.30;;;6.80;99.90;;;;;;5046794;28;20572;-79
2021/03/27 09:09:14;;;;;;;3.42;2.35;;;7.30;99.90;;;;;;5068130;28;20621;-80
2021/03/27 09:12:04;;;;;;;1.10;0.55;;;8.10;99.90;;;;;;5068408;28;20640;-78
2021/03/27 09:14:51;;;;;;;0.85;0.85;;;8.60;99.90;;;;;;5067999;28;20195;-80
2021/03/27 09:17:37;;;;;;;1.13;0.70;;;9.40;99.90;;;;;;5066573;28;20591;-79
2021/03/27 09:20:44;;;;;;;3.90;0.90;;;10.30;99.90;;;;;;5067987;28;20203;-79
2021/03/27 09:23:33;;;;;;;1.92;1.83;;;10.60;99.90;;;;;;5046755;28;20219;-79
2021/03/27 09:26:45;;;;;;;0.80;0.80;;;11.40;99.90;;;;;;5066310;28;20198;-79
2021/03/27 09:29:53;;;;;;;6.68;1.98;;;11.70;99.90;;;;;;5067193;28;20695;-76
2021/03/27 09:32:47;;;;;;;0.80;0.80;;;10.10;99.90;;;;;;5075938;28;20229;-79
2021/03/27 09:35:39;;;;;;;1.33;0.85;;;8.50;99.90;;;;;;5087176;28;20178;-79
2021/03/27 09:38:44;;;;;;;0.82;0.82;;;7.80;99.90;;;;;;5085445;28;20186;-80
2021/03/27 09:41:59;;;;;;;3.90;0.75;;;7.40;99.90;;;;;;5066499;28;20193;-79
2021/03/27 09:45:09;;;;;;;0.60;0.50;;;7.10;99.90;;;;;;5080124;28;20230;-79
2021/03/27 09:47:56;;;;;;;0.55;0.40;;;6.60;99.90;;;;;;5085448;28;20181;-79
2021/03/27 09:50:34;;;;;;;0.50;0.40;;;5.80;99.90;;;;;;5086849;28;20203;-79
2021/03/27 09:53:06;;;;;;;0.50;0.40;;;5.40;99.90;;;;;;5086341;28;20591;-79
2021/03/27 09:55:42;;;;;;;0.50;0.40;;;5.10;99.90;;;;;;5086801;28;20193;-79
2021/03/27 09:58:19;;;;;;;0.50;0.40;;;4.90;99.90;;;;;;5085853;28;20678;-79
2021/03/27 10:01:01;;;;;;;0.73;0.70;;;4.80;99.90;;;;;;5087752;28;20181;-79
2021/03/27 10:03:35;;;;;;;0.60;0.60;;;4.90;99.90;;;;;;5086866;28;20205;-79
2021/03/27 10:06:33;;;;;;;0.50;0.50;;;5.00;99.90;;;;;;5084923;28;20196;-79
2021/03/27 10:09:05;;;;;;;0.50;0.40;;;4.90;99.90;;;;;;5087410;28;20198;-79
2021/03/27 10:11:35;;;;;;;0.50;0.45;;;4.80;99.90;;;;;;5087236;28;20221;-79
2021/03/27 10:14:16;;;;;;;0.50;0.40;;;4.60;99.90;;;;;;5086894;28;20264;-79
2021/03/27 10:16:50;;;;;;;0.50;0.40;;;4.50;99.90;;;;;;5086001;28;20204;-79
2021/03/27 10:19:27;;;;;;;0.50;0.40;;;4.30;99.90;;;;;;5086777;28;20195;-79
2021/03/27 10:22:05;;;;;;;0.50;0.40;;;4.60;99.90;;;;;;5086619;28;20213;-79
2021/03/27 10:24:40;;;;;;;0.50;0.40;;;4.70;99.90;;;;;;5086783;28;20207;-78
2021/03/27 10:27:12;;;;;;;0.80;0.80;;;4.80;99.90;;;;;;5085981;28;20251;-79
2021/03/27 10:29:47;;;;;;;0.50;0.40;;;4.70;99.90;;;;;;5086772;28;20189;-80
2021/03/27 10:32:48;;;;;;;0.50;0.40;;;4.40;99.90;;;;;;5086289;28;20231;-80
2021/03/27 10:35:43;;;;;;;2.25;2.15;;;4.30;99.90;;;;;;5086043;28;20191;-80
2021/03/27 10:38:30;;;;;;;0.50;0.40;;;4.40;99.90;;;;;;5085625;28;20217;-80
2021/03/27 10:40:59;;;;;;;0.50;0.50;;;5.30;99.90;;;;;;5084589;28;20201;-79
2021/03/27 10:43:34;;;;;;;0.50;0.40;;;6.20;99.90;;;;;;5086090;28;20216;-80
2021/03/27 10:46:21;;;;;;;0.50;0.40;;;6.70;99.90;;;;;;5084937;28;20181;-80
2021/03/27 10:49:05;;;;;;;3.33;1.52;;;6.80;99.90;;;;;;5086383;28;20212;-79
2021/03/27 10:52:13;;;;;;;1.33;1.23;;;6.60;99.90;;;;;;5085976;28;20222;-80
2021/03/27 10:55:07;;;;;;;0.90;0.90;;;6.60;99.90;;;;;;5086069;28;20213;-79
2021/03/27 10:58:03;;;;;;;0.70;0.70;;;6.70;99.90;;;;;;5085754;28;20194;-79
2021/03/27 11:00:37;;;;;;;0.60;0.50;;;6.70;99.90;;;;;;5086103;28;20197;-80
2021/03/27 11:03:26;;;;;;;0.50;0.40;;;6.80;99.90;;;;;;5085363;28;20225;-77
2021/03/27 11:06:07;;;;;;;0.50;0.40;;;6.80;99.90;;;;;;5084843;28;20427;-80
2021/03/27 11:09:06;;;;;;;0.80;0.80;;;7.40;99.90;;;;;;5087059;28;20204;-80
2021/03/27 11:12:07;;;;;;;0.75;0.75;;;9.50;99.90;;;;;;5087548;28;20243;-81
2021/03/27 11:15:03;;;;;;;0.60;0.50;;;11.30;99.90;;;;;;5087007;28;20191;-80
2021/03/27 11:18:14;;;;;;;0.50;0.40;;;12.20;99.90;;;;;;5085987;28;20178;-80
2021/03/27 11:21:08;;;;;;;0.50;0.40;;;13.20;99.90;;;;;;5089003;28;20198;-80
2021/03/27 11:24:23;;;;;;;1.25;0.80;;;13.00;99.90;;;;;;5081606;28;20579;-81
2021/03/27 11:27:28;;;;;;;0.70;0.65;;;11.30;99.90;;;;;;5041280;28;20199;-79
2021/03/27 11:30:02;;;;;;;1.23;0.82;;;9.80;99.90;;;;;;5073824;28;20202;-80
2021/03/27 11:32:38;;;;;;;1.30;1.20;;;8.40;99.90;;;;;;5091600;28;20233;-79
2021/03/27 11:35:13;;;;;;;1.58;1.48;;;8.60;99.90;;;;;;5091584;28;20183;-80
2021/03/27 11:38:02;;;;;;;1.15;1.05;;;9.60;99.90;;;;;;5088626;28;20218;-80
2021/03/27 11:40:34;;;;;;;0.60;0.60;;;11.00;99.90;;;;;;5088396;28;20188;-80
2021/03/27 11:43:26;;;;;;;3.22;1.58;;;11.70;99.90;;;;;;5090276;28;20311;-81
2021/03/27 11:46:05;;;;;;;0.57;0.47;;;11.70;99.90;;;;;;5088604;28;20184;-78
2021/03/27 11:48:42;;;;;;;0.50;0.40;;;12.30;99.90;;;;;;5088685;28;20212;-79
2021/03/27 11:51:15;;;;;;;2.25;0.80;;;12.90;99.90;;;;;;5089207;28;20207;-79
2021/03/27 11:54:09;;;;;;;2.88;0.93;;;13.20;99.90;;;;;;5090103;28;20182;-79
2021/03/27 11:57:04;;;;;;;0.65;0.65;;;13.10;99.90;;;;;;5087796;28;20200;-79
2021/03/27 12:02:43;;;;;;;0.88;0.88;;;12.20;99.90;;;;;;5089157;28;20261;-78
2021/03/27 12:05:14;;;;;;;0.60;0.50;;;12.60;99.90;;;;;;5089028;28;20193;-79
2021/03/27 12:07:53;;;;;;;0.50;0.40;;;12.40;99.90;;;;;;5089767;28;20186;-79
2021/03/27 12:10:34;;;;;;;2.53;2.35;;;12.80;99.90;;;;;;5089276;28;20257;-79
2021/03/27 12:13:05;;;;;;;0.50;0.40;;;13.80;99.90;;;;;;5088946;28;20239;-79
2021/03/27 12:15:37;;;;;;;0.70;0.52;;;14.50;99.90;;;;;;5089182;28;20433;-79
2021/03/27 12:18:13;;;;;;;0.60;0.50;;;14.80;99.90;;;;;;5088289;28;20201;-79
2021/03/27 12:20:45;;;;;;;0.50;0.40;;;14.40;99.90;;;;;;5089400;28;20448;-79
2021/03/27 12:23:24;;;;;;;0.60;0.60;;;14.30;99.90;;;;;;5089839;28;20300;-80
2021/03/27 12:26:04;;;;;;;1.40;0.77;;;13.30;99.90;;;;;;5087968;28;20213;-78
2021/03/27 12:28:42;;;;;;;0.57;0.55;;;12.30;99.90;;;;;;5087923;28;20188;-79
2021/03/27 12:33:50;;;;;;;0.50;0.40;;;11.40;99.90;;;;;;5067800;22;20224;-80
2021/03/27 12:36:20;;;;;;;0.50;0.40;;;11.50;99.90;;;;;;5057042;28;20658;-79
2021/03/27 12:39:14;;;;;;;0.70;0.50;;;11.40;99.90;;;;;;5057448;28;20191;-80
2021/03/27 12:41:45;;;;;;;2.38;0.98;;;11.40;99.90;;;;;;5042480;28;20228;-79
2021/03/27 12:44:24;;;;;;;2.30;1.45;;;10.90;99.90;;;;;;5039029;28;20196;-80
2021/03/27 12:46:58;;;;;;;0.60;0.60;;;10.40;99.90;;;;;;5037950;28;20187;-79
2021/03/27 12:49:41;;;;;;;2.88;2.67;;;10.20;99.90;;;;;;5038820;28;20200;-80
2021/03/27 12:52:20;;;;;;;0.50;0.40;;;10.00;99.90;;;;;;5037540;28;20220;-79
2021/03/27 12:54:57;;;;;;;0.60;0.50;;;9.90;99.90;;;;;;5038942;28;20183;-81
2021/03/27 12:57:54;;;;;;;0.93;0.90;;;9.70;99.90;;;;;;5037823;28;20195;-80
2021/03/27 13:00:47;;;;;;;1.23;0.75;;;9.50;99.90;;;;;;5039059;28;20184;-81
2021/03/27 13:03:39;;;;;;;0.70;0.50;;;9.40;99.90;;;;;;5054366;28;20584;-77
2021/03/27 13:06:26;;;;;;;0.50;0.40;;;10.00;99.90;;;;;;5060091;28;20285;-80
2021/03/27 13:09:24;;;;;;;3.10;1.02;;;11.30;99.90;;;;;;5060688;28;20209;-80
2021/03/27 13:11:57;;;;;;;0.50;0.40;;;12.80;99.90;;;;;;5057652;28;20220;-81
2021/03/27 13:15:13;;;;;;;0.50;0.40;;;14.00;99.90;;;;;;5056872;28;20672;-79
2021/03/27 13:17:50;;;;;;;0.50;0.30;;;15.20;98.50;;;;;;5055107;28;20429;-79
2021/03/27 13:20:31;;;;;;;0.50;0.40;;;16.20;91.80;;;;;;5055166;28;20415;-79
2021/03/27 13:23:07;;;;;;;2.10;0.60;;;16.40;87.50;;;;;;5055096;28;20488;-78
2021/03/27 13:25:36;;;;;;;0.50;0.40;;;15.90;75.80;;;;;;5054657;28;20494;-79
2021/03/27 13:28:13;;;;;;;0.50;0.40;;;15.90;76.70;;;;;;5054249;28;20446;-79
2021/03/27 13:30:48;;;;;;;0.70;0.67;;;16.50;79.90;;;;;;5055007;28;20908;-77
2021/03/27 13:33:25;;;;;;;1.17;0.50;;;17.10;73.70;;;;;;5056669;28;20456;-77
2021/03/27 13:36:12;;;;;;;0.50;0.50;;;16.80;70.30;;;;;;5058263;28;20926;-79
2021/03/27 13:38:44;;;;;;;1.07;0.40;;;15.20;72.10;;;;;;5054143;28;20508;-78
2021/03/27 13:41:25;;;;;;;0.50;0.40;;;14.50;74.10;;;;;;5052901;28;20491;-77
2021/03/27 13:43:56;;;;;;;0.70;0.50;;;14.00;75.70;;;;;;5055104;28;20464;-80
2021/03/27 13:46:32;;;;;;;1.35;1.13;;;13.40;77.60;;;;;;5053715;28;20417;-78
2021/03/27 13:49:05;;;;;;;0.93;0.63;;;12.80;77.60;;;;;;5053892;28;20194;-78
2021/03/27 13:51:37;;;;;;;0.50;0.40;;;12.00;82.30;;;;;;5054370;28;20703;-77
2021/03/27 13:54:29;;;;;;;0.50;0.40;;;11.50;86.60;;;;;;5054520;28;20207;-78
2021/03/27 13:57:00;;;;;;;0.80;0.60;;;11.40;91.70;;;;;;5054355;28;20238;-78
2021/03/27 13:59:43;;;;;;;0.60;0.50;;;11.90;90.80;;;;;;5056161;28;20256;-78
2021/03/27 14:03:00;;;;;;;0.70;0.50;;;12.70;90.00;;;;;;5055912;28;20214;-78
2021/03/27 14:05:53;;;;;;;1.63;0.60;;;13.70;85.40;;;;;;5047805;28;20242;-78
2021/03/27 14:08:42;;;;;;;0.50;0.40;;;14.40;83.20;;;;;;5056052;28;20441;-79
2021/03/27 14:11:13;;;;;;;0.50;0.30;;;14.90;76.40;;;;;;5055673;28;20526;-79
2021/03/27 14:13:42;;;;;;;0.60;0.53;;;14.80;75.50;;;;;;5055394;28;20417;-80
2021/03/27 14:16:30;;;;;;;0.50;0.30;;;14.70;74.60;;;;;;5055284;28;20487;-80
2021/03/27 14:19:18;;;;;;;1.47;0.90;;;14.50;78.60;;;;;;5055420;28;20788;-79
2021/03/27 14:21:56;;;;;;;1.00;0.80;;;14.90;76.70;;;;;;5055788;28;20602;-79
2021/03/27 14:24:56;;;;;;;0.63;0.40;;;14.90;75.70;;;;;;5055701;28;20534;-80